Time;durP1;ratioP1;P1;durP2;ratioP2;P2;SDS_P1;SDS_P2;PMS_P1;PMS_P2;Temp;Humidity;BMP_temperature;BMP_pressure;BME280_temperature;BME280_humidity;BME280_pressure;Samples;Min_cycle;Max_cycle;Signal;HPM_P1;HPM_P2
2023/03/23 00:00:19;;;;;;;;;;;;;;;;;;4946654;28;20419;-86
2023/03/23 00:02:49;;;;;;;;;;;;;;;;;;4955412;28;19921;-86
2023/03/23 00:05:18;;;;;;;;;;;;;;;;;;4960922;28;19922;-86
2023/03/23 00:07:51;;;;;;;;;;;;;;;;;;4937880;28;19925;-86
2023/03/23 00:10:18;;;;;;;;;;;;;;;;;;4970267;28;19922;-86
2023/03/23 00:12:49;;;;;;;;;;;;;;;;;;4953748;28;20385;-86
2023/03/23 00:15:18;;;;;;;;;;;;;;;;;;4956507;28;19930;-86
2023/03/23 00:17:45;;;;;;;;;;;;;;;;;;4955053;28;19931;-85
2023/03/23 00:20:12;;;;;;;;;;;;;;;;;;4962181;28;19926;-86
2023/03/23 00:22:40;;;;;;;;;;;;;;;;;;4943762;28;19929;-86
2023/03/23 00:25:09;;;;;;;;;;;;;;;;;;4966792;28;19922;-86
2023/03/23 00:27:38;;;;;;;;;;;;;;;;;;4968324;28;19922;-86
2023/03/23 00:30:06;;;;;;;;;;;;;;;;;;4951313;28;19922;-86
2023/03/23 00:32:33;;;;;;;;;;;;;;;;;;4947545;29;19929;-86
2023/03/23 00:35:02;;;;;;;;;;;;;;;;;;4936865;29;19926;-86
2023/03/23 00:37:30;;;;;;;;;;;;;;;;;;4938816;28;20392;-86
2023/03/23 00:40:00;;;;;;;;;;;;;;;;;;4962440;28;19926;-86
2023/03/23 00:42:29;;;;;;;;;;;;;;;;;;4939939;29;19938;-86
2023/03/23 00:44:59;;;;;;;;;;;;;;;;;;4953881;28;19927;-85
2023/03/23 00:47:26;;;;;;;;;;;;;;;;;;4943089;28;19926;-85
2023/03/23 00:49:56;;;;;;;;;;;;;;;;;;4954216;28;20407;-86
2023/03/23 00:52:23;;;;;;;;;;;;;;;;;;4952639;28;19933;-85
2023/03/23 00:54:53;;;;;;;;;;;;;;;;;;4966369;28;19922;-86
2023/03/23 00:57:23;;;;;;;;;;;;;;;;;;4938595;28;20372;-85
2023/03/23 00:59:52;;;;;;;;;;;;;;;;;;4955358;28;19922;-86
2023/03/23 01:02:19;;;;;;;;;;;;;;;;;;4953040;29;19930;-86
2023/03/23 01:04:51;;;;;;;;;;;;;;;;;;4964885;28;19922;-85
2023/03/23 01:07:18;;;;;;;;;;;;;;;;;;4958735;28;19922;-86
2023/03/23 01:09:45;;;;;;;;;;;;;;;;;;4948830;28;19922;-87
2023/03/23 01:12:13;;;;;;;;;;;;;;;;;;4954991;28;19922;-86
2023/03/23 01:14:40;;;;;;;;;;;;;;;;;;4969978;28;19923;-86
2023/03/23 01:17:09;;;;;;;;;;;;;;;;;;4959331;28;19922;-86
2023/03/23 01:19:37;;;;;;;;;;;;;;;;;;4952990;29;19926;-86
2023/03/23 01:22:04;;;;;;;;;;;;;;;;;;4970115;28;19930;-86
2023/03/23 01:24:31;;;;;;;;;;;;;;;;;;4968969;28;19934;-85
2023/03/23 01:27:01;;;;;;;;;;;;;;;;;;4952275;28;19951;-85
2023/03/23 01:29:28;;;;;;;;;;;;;;;;;;4967781;28;19922;-86
2023/03/23 01:31:55;;;;;;;;;;;;;;;;;;4957383;28;20380;-86
2023/03/23 01:34:24;;;;;;;;;;;;;;;;;;4969181;28;19925;-86
2023/03/23 01:36:51;;;;;;;;;;;;;;;;;;4936082;28;19930;-85
2023/03/23 01:39:17;;;;;;;;;;;;;;;;;;4950762;28;19929;-86
2023/03/23 01:41:47;;;;;;;;;;;;;;;;;;4952269;28;19945;-86
2023/03/23 01:44:37;;;;;;;;;;;;;;;;;;4936236;29;19922;-85
2023/03/23 01:47:09;;;;;;;;;;;;;;;;;;4939278;28;19945;-86
2023/03/23 01:49:42;;;;;;;;;;;;;;;;;;4940438;28;19922;-86
2023/03/23 01:52:10;;;;;;;;;;;;;;;;;;4954193;28;19938;-86
2023/03/23 01:54:40;;;;;;;;;;;;;;;;;;4957409;28;20388;-85
2023/03/23 01:57:08;;;;;;;;;;;;;;;;;;4955070;28;19922;-85
2023/03/23 01:59:47;;;;;;;;;;;;;;;;;;4949580;28;19922;-85
2023/03/23 02:02:28;;;;;;;;;;;;;;;;;;4957596;28;20292;-85
2023/03/23 02:05:00;;;;;;;;;;;;;;;;;;4955527;28;19930;-86
2023/03/23 02:07:32;;;;;;;;;;;;;;;;;;4953310;28;19930;-85
2023/03/23 02:10:01;;;;;;;;;;;;;;;;;;4934042;28;19929;-85
2023/03/23 02:12:31;;;;;;;;;;;;;;;;;;4957016;28;20285;-85
2023/03/23 02:15:01;;;;;;;;;;;;;;;;;;4952983;28;19929;-86
2023/03/23 02:17:31;;;;;;;;;;;;;;;;;;4954275;28;19929;-86
2023/03/23 02:20:13;;;;;;;;;;;;;;;;;;4945729;28;20398;-85
2023/03/23 02:23:00;;;;;;;;;;;;;;;;;;4947651;28;19929;-85
2023/03/23 02:25:34;;;;;;;;;;;;;;;;;;4954441;28;19922;-85
2023/03/23 02:28:09;;;;;;;;;;;;;;;;;;4961322;28;19941;-85
2023/03/23 02:30:41;;;;;;;;;;;;;;;;;;4934521;28;19922;-86
2023/03/23 02:33:17;;;;;;;;;;;;;;;;;;4934139;28;19929;-85
2023/03/23 02:35:44;;;;;;;;;;;;;;;;;;4966240;28;19922;-85
2023/03/23 02:38:14;;;;;;;;;;;;;;;;;;4953527;28;20281;-85
2023/03/23 02:40:41;;;;;;;;;;;;;;;;;;4949920;28;19937;-85
2023/03/23 02:43:09;;;;;;;;;;;;;;;;;;4956798;28;20300;-85
2023/03/23 02:45:36;;;;;;;;;;;;;;;;;;4952019;28;20274;-85
2023/03/23 02:48:04;;;;;;;;;;;;;;;;;;4938858;29;20331;-85
2023/03/23 02:50:35;;;;;;;;;;;;;;;;;;4951724;28;19930;-85
2023/03/23 02:53:07;;;;;;;;;;;;;;;;;;4951519;28;19929;-85
2023/03/23 02:55:40;;;;;;;;;;;;;;;;;;4939003;28;19929;-85
2023/03/23 02:58:07;;;;;;;;;;;;;;;;;;4956049;28;19929;-85
2023/03/23 03:00:35;;;;;;;;;;;;;;;;;;4936681;28;19923;-86
2023/03/23 03:03:02;;;;;;;;;;;;;;;;;;4966188;28;19933;-85
2023/03/23 03:05:36;;;;;;;;;;;;;;;;;;4953223;28;20281;-86
2023/03/23 03:08:07;;;;;;;;;;;;;;;;;;4951223;28;19926;-87
2023/03/23 03:10:35;;;;;;;;;;;;;;;;;;4941806;28;19923;-85
2023/03/23 03:13:04;;;;;;;;;;;;;;;;;;4952017;28;20421;-85
2023/03/23 03:15:36;;;;;;;;;;;;;;;;;;4954061;28;19929;-86
2023/03/23 03:18:05;;;;;;;;;;;;;;;;;;4957359;28;19926;-85
2023/03/23 03:20:40;;;;;;;;;;;;;;;;;;4951798;28;19933;-85
2023/03/23 03:23:09;;;;;;;;;;;;;;;;;;4946442;28;19941;-85
2023/03/23 03:25:36;;;;;;;;;;;;;;;;;;4946465;28;19933;-85
2023/03/23 03:28:06;;;;;;;;;;;;;;;;;;4953194;29;19945;-87
2023/03/23 03:30:44;;;;;;;;;;;;;;;;;;4935425;28;20300;-86
2023/03/23 03:33:14;;;;;;;;;;;;;;;;;;4940809;28;19922;-85
2023/03/23 03:35:42;;;;;;;;;;;;;;;;;;4952867;28;19929;-86
2023/03/23 03:38:10;;;;;;;;;;;;;;;;;;4939621;28;20031;-86
2023/03/23 03:40:38;;;;;;;;;;;;;;;;;;4938463;28;19922;-86
2023/03/23 03:43:05;;;;;;;;;;;;;;;;;;4951666;28;19922;-86
2023/03/23 03:45:35;;;;;;;;;;;;;;;;;;4954140;28;19929;-86
2023/03/23 03:48:02;;;;;;;;;;;;;;;;;;4954690;28;19930;-86
2023/03/23 03:50:30;;;;;;;;;;;;;;;;;;4953149;28;19922;-85
2023/03/23 03:52:57;;;;;;;;;;;;;;;;;;4973749;28;19933;-86
2023/03/23 03:55:28;;;;;;;;;;;;;;;;;;4942070;28;20392;-86
2023/03/23 03:57:57;;;;;;;;;;;;;;;;;;4960617;28;19998;-85
2023/03/23 04:00:47;;;;;;;;;;;;;;;;;;4970614;28;20415;-86
2023/03/23 04:03:19;;;;;;;;;;;;;;;;;;4943875;28;19922;-86
2023/03/23 04:06:01;;;;;;;;;;;;;;;;;;4957297;28;19949;-85
2023/03/23 04:08:28;;;;;;;;;;;;;;;;;;4944177;28;19923;-85
2023/03/23 04:10:56;;;;;;;;;;;;;;;;;;4955108;28;19922;-86
2023/03/23 04:13:24;;;;;;;;;;;;;;;;;;4954938;28;19922;-85
2023/03/23 04:16:10;;;;;;;;;;;;;;;;;;4959314;28;19922;-86
2023/03/23 04:18:39;;;;;;;;;;;;;;;;;;4942560;28;19930;-86
2023/03/23 04:21:09;;;;;;;;;;;;;;;;;;4959653;28;19929;-87
2023/03/23 04:23:36;;;;;;;;;;;;;;;;;;4941439;28;19922;-84
2023/03/23 04:26:07;;;;;;;;;;;;;;;;;;4950253;28;20313;-86
2023/03/23 04:28:41;;;;;;;;;;;;;;;;;;4940498;28;19993;-87
2023/03/23 04:31:26;;;;;;;;;;;;;;;;;;4974221;28;19933;-86
2023/03/23 04:34:01;;;;;;;;;;;;;;;;;;4954102;28;19929;-86
2023/03/23 04:39:17;;;;;;;;;;;;;;;;;;4948181;28;19923;-85
2023/03/23 04:41:47;;;;;;;;;;;;;;;;;;4930451;29;19923;-85
2023/03/23 04:44:37;;;;;;;;;;;;;;;;;;4959035;28;19929;-85
2023/03/23 04:47:13;;;;;;;;;;;;;;;;;;4925328;29;20338;-83
2023/03/23 04:49:48;;;;;;;;;;;;;;;;;;4933358;29;19922;-83
2023/03/23 04:52:25;;;;;;;;;;;;;;;;;;4934253;29;19929;-83
2023/03/23 04:54:58;;;;;;;;;;;;;;;;;;4919896;29;19931;-83
2023/03/23 04:57:27;;;;;;;;;;;;;;;;;;4949772;29;19933;-83
2023/03/23 05:00:18;;;;;;;;;;;;;;;;;;4935185;29;19930;-83
2023/03/23 05:02:52;;;;;;;;;;;;;;;;;;4932479;29;20424;-83
2023/03/23 05:05:22;;;;;;;;;;;;;;;;;;4915311;29;19931;-81
2023/03/23 05:07:50;;;;;;;;;;;;;;;;;;4926564;29;19922;-81
2023/03/23 05:10:20;;;;;;;;;;;;;;;;;;4940059;29;19931;-81
2023/03/23 05:12:53;;;;;;;;;;;;;;;;;;4933940;29;19933;-81
2023/03/23 05:15:26;;;;;;;;;;;;;;;;;;4933472;29;19930;-81
2023/03/23 05:17:53;;;;;;;;;;;;;;;;;;4920181;29;19923;-81
2023/03/23 05:20:21;;;;;;;;;;;;;;;;;;4936891;29;19937;-81
2023/03/23 05:22:50;;;;;;;;;;;;;;;;;;4935227;29;19922;-81
2023/03/23 05:25:28;;;;;;;;;;;;;;;;;;4934537;29;19923;-81
2023/03/23 05:28:03;;;;;;;;;;;;;;;;;;4935372;29;19923;-82
2023/03/23 05:30:44;;;;;;;;;;;;;;;;;;4934647;29;19934;-81
2023/03/23 05:33:12;;;;;;;;;;;;;;;;;;4920322;29;19931;-82
2023/03/23 05:36:02;;;;;;;;;;;;;;;;;;4922249;29;19938;-81
2023/03/23 05:38:36;;;;;;;;;;;;;;;;;;4922597;29;19931;-82
2023/03/23 05:41:03;;;;;;;;;;;;;;;;;;4921024;29;20301;-82
2023/03/23 05:43:42;;;;;;;;;;;;;;;;;;4920869;29;20332;-82
2023/03/23 05:46:17;;;;;;;;;;;;;;;;;;4920268;29;19926;-82
2023/03/23 05:48:44;;;;;;;;;;;;;;;;;;4921287;29;19923;-82
2023/03/23 05:51:16;;;;;;;;;;;;;;;;;;4905574;29;19929;-82
2023/03/23 05:53:44;;;;;;;;;;;;;;;;;;4921476;29;19935;-82
2023/03/23 05:56:15;;;;;;;;;;;;;;;;;;4903846;29;19938;-81
2023/03/23 05:59:12;;;;;;;;;;;;;;;;;;4908136;29;20304;-81
2023/03/23 06:01:41;;;;;;;;;;;;;;;;;;4926677;28;19927;-82
2023/03/23 06:04:09;;;;;;;;;;;;;;;;;;4919392;29;19926;-81
2023/03/23 06:06:52;;;;;;;;;;;;;;;;;;4937087;28;19985;-82
2023/03/23 06:09:23;;;;;;;;;;;;;;;;;;4928741;28;19923;-81
2023/03/23 06:12:11;;;;;;;;;;;;;;;;;;4916205;28;19931;-82
2023/03/23 06:14:55;;;;;;;;;;;;;;;;;;4921746;29;19926;-82
2023/03/23 06:17:30;;;;;;;;;;;;;;;;;;4922246;29;19922;-81
2023/03/23 06:19:57;;;;;;;;;;;;;;;;;;4910255;29;19927;-82
2023/03/23 06:22:24;;;;;;;;;;;;;;;;;;4934404;29;19922;-81
2023/03/23 06:25:06;;;;;;;;;;;;;;;;;;4915438;29;20424;-83
2023/03/23 06:27:40;;;;;;;;;;;;;;;;;;4934877;29;19922;-81
2023/03/23 06:30:12;;;;;;;;;;;;;;;;;;4962938;29;19937;-81
2023/03/23 06:32:43;;;;;;;;;;;;;;;;;;4929731;29;19923;-81
2023/03/23 06:35:12;;;;;;;;;;;;;;;;;;4912390;29;19937;-82
2023/03/23 06:37:45;;;;;;;;;;;;;;;;;;4934018;29;19930;-81
2023/03/23 06:40:21;;;;;;;;;;;;;;;;;;4936770;29;19923;-81
2023/03/23 06:42:57;;;;;;;;;;;;;;;;;;4934101;29;20147;-81
2023/03/23 06:45:43;;;;;;;;;;;;;;;;;;4946233;29;19929;-81
2023/03/23 06:48:28;;;;;;;;;;;;;;;;;;4917038;29;20403;-81
2023/03/23 06:50:56;;;;;;;;;;;;;;;;;;4937235;29;19937;-81
2023/03/23 06:53:28;;;;;;;;;;;;;;;;;;4937588;29;20305;-81
2023/03/23 06:55:57;;;;;;;;;;;;;;;;;;4918294;29;20296;-81
2023/03/23 06:58:27;;;;;;;;;;;;;;;;;;4931487;29;19930;-81
2023/03/23 07:00:58;;;;;;;;;;;;;;;;;;4918370;29;20297;-81
2023/03/23 07:03:30;;;;;;;;;;;;;;;;;;4927725;29;19923;-81
2023/03/23 07:06:03;;;;;;;;;;;;;;;;;;4933826;29;19922;-81
2023/03/23 07:08:34;;;;;;;;;;;;;;;;;;4899807;29;19923;-81
2023/03/23 07:11:01;;;;;;;;;;;;;;;;;;4919106;29;19923;-81
2023/03/23 07:13:35;;;;;;;;;;;;;;;;;;4944238;29;19923;-81
2023/03/23 07:16:11;;;;;;;;;;;;;;;;;;4921862;29;19950;-81
2023/03/23 07:18:39;;;;;;;;;;;;;;;;;;4915430;29;19923;-81
2023/03/23 07:21:07;;;;;;;;;;;;;;;;;;4933889;29;19923;-81
2023/03/23 07:23:34;;;;;;;;;;;;;;;;;;4934345;29;19945;-81
2023/03/23 07:26:17;;;;;;;;;;;;;;;;;;4933816;29;19923;-82
2023/03/23 07:28:55;;;;;;;;;;;;;;;;;;4930658;29;19930;-81
2023/03/23 07:31:40;;;;;;;;;;;;;;;;;;4943881;29;19923;-81
2023/03/23 07:34:09;;;;;;;;;;;;;;;;;;4938783;29;20403;-81
2023/03/23 07:36:47;;;;;;;;;;;;;;;;;;4939016;29;19946;-81
2023/03/23 07:39:15;;;;;;;;;;;;;;;;;;4932657;29;19930;-82
2023/03/23 07:41:43;;;;;;;;;;;;;;;;;;4933500;29;19930;-81
2023/03/23 07:44:24;;;;;;;;;;;;;;;;;;4940964;29;19949;-82
2023/03/23 07:46:55;;;;;;;;;;;;;;;;;;4936940;29;19927;-81
2023/03/23 07:49:32;;;;;;;;;;;;;;;;;;4946569;29;19933;-81
2023/03/23 07:52:14;;;;;;;;;;;;;;;;;;4944479;29;19926;-81
2023/03/23 07:54:41;;;;;;;;;;;;;;;;;;4923793;29;19933;-81
2023/03/23 07:57:17;;;;;;;;;;;;;;;;;;4933158;29;19930;-81
2023/03/23 07:59:50;;;;;;;;;;;;;;;;;;4912926;29;19923;-82
2023/03/23 08:02:19;;;;;;;;;;;;;;;;;;4946171;29;19930;-82
2023/03/23 08:05:10;;;;;;;;;;;;;;;;;;4941689;29;20300;-81
2023/03/23 08:07:53;;;;;;;;;;;;;;;;;;4933371;29;19930;-81
2023/03/23 08:10:47;;;;;;;;;;;;;;;;;;4941692;29;19985;-81
2023/03/23 08:13:45;;;;;;;;;;;;;;;;;;4913006;29;20316;-82
2023/03/23 08:16:32;;;;;;;;;;;;;;;;;;4926666;29;19930;-81
2023/03/23 08:19:12;;;;;;;;;;;;;;;;;;4936950;29;19929;-82
2023/03/23 08:21:50;;;;;;;;;;;;;;;;;;4939640;29;19923;-81
2023/03/23 08:24:23;;;;;;;;;;;;;;;;;;4938634;29;19922;-81
2023/03/23 08:27:01;;;;;;;;;;;;;;;;;;4938280;29;19923;-81
2023/03/23 08:29:28;;;;;;;;;;;;;;;;;;4932843;29;19923;-81
2023/03/23 08:32:22;;;;;;;;;;;;;;;;;;4924602;29;20316;-81
2023/03/23 08:35:10;;;;;;;;;;;;;;;;;;4932430;29;20308;-81
2023/03/23 08:37:52;;;;;;;;;;;;;;;;;;4933086;29;19922;-82
2023/03/23 08:40:39;;;;;;;;;;;;;;;;;;4933265;29;19930;-82
2023/03/23 08:43:26;;;;;;;;;;;;;;;;;;4948324;29;19930;-81
2023/03/23 08:46:11;;;;;;;;;;;;;;;;;;4929276;29;19923;-81
2023/03/23 08:48:55;;;;;;;;;;;;;;;;;;4930625;29;19922;-81
2023/03/23 08:51:43;;;;;;;;;;;;;;;;;;4934970;29;19929;-81
2023/03/23 08:54:10;;;;;;;;;;;;;;;;;;4934297;29;19930;-82
2023/03/23 08:57:00;;;;;;;;;;;;;;;;;;4935960;29;19931;-81
2023/03/23 08:59:46;;;;;;;;;;;;;;;;;;4935637;29;19988;-81
2023/03/23 09:02:33;;;;;;;;;;;;;;;;;;4923807;29;19930;-81
2023/03/23 09:05:15;;;;;;;;;;;;;;;;;;4935026;29;19922;-81
2023/03/23 09:08:03;;;;;;;;;;;;;;;;;;4938785;29;20002;-82
2023/03/23 09:10:31;;;;;;;;;;;;;;;;;;4937094;29;19923;-81
2023/03/23 09:13:00;;;;;;;;;;;;;;;;;;4935941;29;19923;-81
2023/03/23 09:15:28;;;;;;;;;;;;;;;;;;4934994;29;19923;-81
2023/03/23 09:17:56;;;;;;;;;;;;;;;;;;4937124;29;20400;-81
2023/03/23 09:20:26;;;;;;;;;;;;;;;;;;4930752;29;20311;-81
2023/03/23 09:22:56;;;;;;;;;;;;;;;;;;4934061;29;19934;-81
2023/03/23 09:25:26;;;;;;;;;;;;;;;;;;4934051;29;19927;-81
2023/03/23 09:27:56;;;;;;;;;;;;;;;;;;4935577;29;19927;-81
2023/03/23 09:30:23;;;;;;;;;;;;;;;;;;4918659;29;19922;-81
2023/03/23 09:32:50;;;;;;;;;;;;;;;;;;4934920;29;19931;-81
2023/03/23 09:35:22;;;;;;;;;;;;;;;;;;4951152;29;19930;-82
2023/03/23 09:37:49;;;;;;;;;;;;;;;;;;4935376;29;19930;-81
2023/03/23 09:40:20;;;;;;;;;;;;;;;;;;4934775;29;19923;-81
2023/03/23 09:42:56;;;;;;;;;;;;;;;;;;4915988;29;19923;-81
2023/03/23 09:45:24;;;;;;;;;;;;;;;;;;4930748;29;19981;-81
2023/03/23 09:47:57;;;;;;;;;;;;;;;;;;4935056;29;20407;-81
2023/03/23 09:50:32;;;;;;;;;;;;;;;;;;4938994;29;19930;-81
2023/03/23 09:52:59;;;;;;;;;;;;;;;;;;4936193;29;19923;-81
2023/03/23 09:55:28;;;;;;;;;;;;;;;;;;4933025;29;19923;-81
2023/03/23 09:58:00;;;;;;;;;;;;;;;;;;4936309;29;19927;-81
2023/03/23 10:00:30;;;;;;;;;;;;;;;;;;4945720;29;19923;-81
2023/03/23 10:03:00;;;;;;;;;;;;;;;;;;4936137;29;19926;-81
2023/03/23 10:05:30;;;;;;;;;;;;;;;;;;4946289;29;19929;-81
2023/03/23 10:07:59;;;;;;;;;;;;;;;;;;4934053;29;19923;-82
2023/03/23 10:10:38;;;;;;;;;;;;;;;;;;4921871;29;19923;-81
2023/03/23 10:13:11;;;;;;;;;;;;;;;;;;4915643;29;20389;-81
2023/03/23 10:15:39;;;;;;;;;;;;;;;;;;4946051;29;19930;-81
2023/03/23 10:18:11;;;;;;;;;;;;;;;;;;4934629;29;19926;-81
2023/03/23 10:20:41;;;;;;;;;;;;;;;;;;4917871;29;20297;-81
2023/03/23 10:23:14;;;;;;;;;;;;;;;;;;4933763;29;19923;-82
2023/03/23 10:25:44;;;;;;;;;;;;;;;;;;4933422;29;19923;-81
2023/03/23 10:28:13;;;;;;;;;;;;;;;;;;4945396;29;19928;-81
2023/03/23 10:30:43;;;;;;;;;;;;;;;;;;4929948;29;20313;-81
2023/03/23 10:33:13;;;;;;;;;;;;;;;;;;4925109;29;19923;-81
2023/03/23 10:35:43;;;;;;;;;;;;;;;;;;4932863;29;20400;-81
2023/03/23 10:38:11;;;;;;;;;;;;;;;;;;4951302;23;20344;-84
2023/03/23 10:40:44;;;;;;;;;;;;;;;;;;4932566;29;19922;-84
2023/03/23 10:43:11;;;;;;;;;;;;;;;;;;4946853;29;19929;-85
2023/03/23 10:45:40;;;;;;;;;;;;;;;;;;4941131;29;20394;-85
2023/03/23 10:48:12;;;;;;;;;;;;;;;;;;4939256;29;19929;-85
2023/03/23 10:50:40;;;;;;;;;;;;;;;;;;4930133;29;19946;-84
2023/03/23 10:53:15;;;;;;;;;;;;;;;;;;4916399;29;19923;-84
2023/03/23 10:55:43;;;;;;;;;;;;;;;;;;4928122;29;19938;-84
2023/03/23 10:58:23;;;;;;;;;;;;;;;;;;4934377;29;19929;-84
2023/03/23 11:00:52;;;;;;;;;;;;;;;;;;4930575;29;20325;-84
2023/03/23 11:03:40;;;;;;;;;;;;;;;;;;4926937;29;19934;-84
2023/03/23 11:06:08;;;;;;;;;;;;;;;;;;4928811;29;19930;-84
2023/03/23 11:08:36;;;;;;;;;;;;;;;;;;4915501;29;20444;-84
2023/03/23 11:11:09;;;;;;;;;;;;;;;;;;4932592;29;19922;-84
2023/03/23 11:13:43;;;;;;;;;;;;;;;;;;4927761;29;19938;-84
2023/03/23 11:16:12;;;;;;;;;;;;;;;;;;4914386;29;19923;-85
2023/03/23 11:18:44;;;;;;;;;;;;;;;;;;4932276;29;19931;-84
2023/03/23 11:21:13;;;;;;;;;;;;;;;;;;4931121;29;19930;-84
2023/03/23 11:23:44;;;;;;;;;;;;;;;;;;4930061;29;19923;-83
2023/03/23 11:26:15;;;;;;;;;;;;;;;;;;4923579;29;19923;-84
2023/03/23 11:28:49;;;;;;;;;;;;;;;;;;4913224;29;19942;-84
2023/03/23 11:31:18;;;;;;;;;;;;;;;;;;4924769;29;19923;-84
2023/03/23 11:33:54;;;;;;;;;;;;;;;;;;4912667;29;19931;-84
2023/03/23 11:36:29;;;;;;;;;;;;;;;;;;4917998;29;19923;-83
2023/03/23 11:38:58;;;;;;;;;;;;;;;;;;4932007;29;19933;-84
2023/03/23 11:41:33;;;;;;;;;;;;;;;;;;4917935;29;20395;-84
2023/03/23 11:44:10;;;;;;;;;;;;;;;;;;4930046;29;19927;-84
2023/03/23 11:46:43;;;;;;;;;;;;;;;;;;4923889;29;20420;-84
2023/03/23 11:49:14;;;;;;;;;;;;;;;;;;4915908;29;19934;-83
2023/03/23 11:51:42;;;;;;;;;;;;;;;;;;4917753;29;20312;-84
2023/03/23 11:54:25;;;;;;;;;;;;;;;;;;4931142;29;19922;-84
2023/03/23 11:56:57;;;;;;;;;;;;;;;;;;4931214;29;19926;-84
2023/03/23 11:59:28;;;;;;;;;;;;;;;;;;4923402;29;19930;-84
2023/03/23 12:01:57;;;;;;;;;;;;;;;;;;4921953;29;19923;-84
2023/03/23 12:04:33;;;;;;;;;;;;;;;;;;4902973;29;19930;-84
2023/03/23 12:07:17;;;;;;;;;;;;;;;;;;4929415;29;19934;-85
2023/03/23 12:09:48;;;;;;;;;;;;;;;;;;4930104;29;19945;-84
2023/03/23 12:12:23;;;;;;;;;;;;;;;;;;4925499;29;19930;-83
2023/03/23 12:14:56;;;;;;;;;;;;;;;;;;4933254;29;20316;-83
2023/03/23 12:17:28;;;;;;;;;;;;;;;;;;4939462;29;19923;-83
2023/03/23 12:20:00;;;;;;;;;;;;;;;;;;4927689;29;20389;-84
2023/03/23 12:22:33;;;;;;;;;;;;;;;;;;4931631;29;19923;-84
2023/03/23 12:25:06;;;;;;;;;;;;;;;;;;4929707;29;19933;-84
2023/03/23 12:27:34;;;;;;;;;;;;;;;;;;4920061;29;19930;-84
2023/03/23 12:30:17;;;;;;;;;;;;;;;;;;4910956;29;19923;-83
2023/03/23 12:32:48;;;;;;;;;;;;;;;;;;4922516;29;19923;-84
2023/03/23 12:35:27;;;;;;;;;;;;;;;;;;4923598;29;19930;-84
2023/03/23 12:37:57;;;;;;;;;;;;;;;;;;4909753;29;19929;-84
2023/03/23 12:40:32;;;;;;;;;;;;;;;;;;4916548;29;19923;-84
2023/03/23 12:43:03;;;;;;;;;;;;;;;;;;4927453;29;19929;-84
2023/03/23 12:45:42;;;;;;;;;;;;;;;;;;4924581;29;19923;-84
2023/03/23 12:48:11;;;;;;;;;;;;;;;;;;4925140;29;19929;-84
2023/03/23 12:50:40;;;;;;;;;;;;;;;;;;4931819;29;19938;-85
2023/03/23 12:53:12;;;;;;;;;;;;;;;;;;4927215;29;19923;-84
2023/03/23 12:55:44;;;;;;;;;;;;;;;;;;4932024;29;19923;-84
2023/03/23 12:58:12;;;;;;;;;;;;;;;;;;4933509;29;20377;-84
2023/03/23 13:00:49;;;;;;;;;;;;;;;;;;4916429;29;19946;-84
2023/03/23 13:03:18;;;;;;;;;;;;;;;;;;4942638;29;19931;-84
2023/03/23 13:05:54;;;;;;;;;;;;;;;;;;4931254;29;19923;-83
2023/03/23 13:08:22;;;;;;;;;;;;;;;;;;4929616;29;19929;-82
2023/03/23 13:11:00;;;;;;;;;;;;;;;;;;4919434;29;19930;-83
2023/03/23 13:13:40;;;;;;;;;;;;;;;;;;4916892;29;19923;-84
2023/03/23 13:16:08;;;;;;;;;;;;;;;;;;4921779;29;20308;-85
2023/03/23 13:18:41;;;;;;;;;;;;;;;;;;4941399;29;19922;-84
2023/03/23 13:21:11;;;;;;;;;;;;;;;;;;4919686;29;19927;-84
2023/03/23 13:23:42;;;;;;;;;;;;;;;;;;4929786;29;19930;-85
2023/03/23 13:26:09;;;;;;;;;;;;;;;;;;4930110;29;20400;-84
2023/03/23 13:28:49;;;;;;;;;;;;;;;;;;4918524;29;19923;-84
2023/03/23 13:31:25;;;;;;;;;;;;;;;;;;4917954;29;19923;-84
2023/03/23 13:34:19;;;;;;;;;;;;;;;;;;4922622;29;19930;-84
2023/03/23 13:36:53;;;;;;;;;;;;;;;;;;4935315;29;19923;-84
2023/03/23 13:39:29;;;;;;;;;;;;;;;;;;4915880;29;19923;-84
2023/03/23 13:42:01;;;;;;;;;;;;;;;;;;4931149;29;19927;-84
2023/03/23 13:44:29;;;;;;;;;;;;;;;;;;4935417;29;19923;-84
2023/03/23 13:46:56;;;;;;;;;;;;;;;;;;4921650;29;19923;-83
2023/03/23 13:49:25;;;;;;;;;;;;;;;;;;4923380;29;20277;-83
2023/03/23 13:52:15;;;;;;;;;;;;;;;;;;4937043;29;19930;-83
2023/03/23 13:54:43;;;;;;;;;;;;;;;;;;4925648;29;19930;-84
2023/03/23 13:57:25;;;;;;;;;;;;;;;;;;4928457;29;19922;-84
2023/03/23 13:59:58;;;;;;;;;;;;;;;;;;4932842;29;20282;-83
2023/03/23 14:02:30;;;;;;;;;;;;;;;;;;4937106;29;20285;-83
2023/03/23 14:05:08;;;;;;;;;;;;;;;;;;4933831;29;19922;-85
2023/03/23 14:07:50;;;;;;;;;;;;;;;;;;4921558;29;20416;-84
2023/03/23 14:10:20;;;;;;;;;;;;;;;;;;4945825;29;19938;-84
2023/03/23 14:12:46;;;;;;;;;;;;;;;;;;4922763;29;20297;-83
2023/03/23 14:15:16;;;;;;;;;;;;;;;;;;4913401;29;19923;-84
2023/03/23 14:17:43;;;;;;;;;;;;;;;;;;4932935;29;19926;-85
2023/03/23 14:20:17;;;;;;;;;;;;;;;;;;4933574;29;19934;-85
2023/03/23 14:22:44;;;;;;;;;;;;;;;;;;4923318;29;19922;-84
2023/03/23 14:25:12;;;;;;;;;;;;;;;;;;4929657;29;20429;-84
2023/03/23 14:27:41;;;;;;;;;;;;;;;;;;4926877;29;19926;-84
2023/03/23 14:30:09;;;;;;;;;;;;;;;;;;4911431;29;20380;-86
2023/03/23 14:32:38;;;;;;;;;;;;;;;;;;4920753;29;19923;-84
2023/03/23 14:35:08;;;;;;;;;;;;;;;;;;4923025;29;20316;-84
2023/03/23 14:37:37;;;;;;;;;;;;;;;;;;4937333;29;19930;-83
2023/03/23 14:40:10;;;;;;;;;;;;;;;;;;4924839;29;19922;-84
2023/03/23 14:42:39;;;;;;;;;;;;;;;;;;4928024;29;20408;-84
2023/03/23 14:45:13;;;;;;;;;;;;;;;;;;4929933;29;19922;-84
2023/03/23 14:47:42;;;;;;;;;;;;;;;;;;4910109;29;19922;-84
2023/03/23 14:50:23;;;;;;;;;;;;;;;;;;4924381;29;19922;-84
2023/03/23 14:52:53;;;;;;;;;;;;;;;;;;4910191;29;19942;-84
2023/03/23 14:55:21;;;;;;;;;;;;;;;;;;4926437;29;20657;-84
2023/03/23 14:57:48;;;;;;;;;;;;;;;;;;4928724;29;20373;-84
2023/03/23 15:00:16;;;;;;;;;;;;;;;;;;4928448;29;19922;-85
2023/03/23 15:02:44;;;;;;;;;;;;;;;;;;4910399;29;20314;-84
2023/03/23 15:05:12;;;;;;;;;;;;;;;;;;4928803;29;19923;-84
2023/03/23 15:07:39;;;;;;;;;;;;;;;;;;4919250;29;19923;-85
2023/03/23 15:10:08;;;;;;;;;;;;;;;;;;4929999;29;19930;-84
2023/03/23 15:12:35;;;;;;;;;;;;;;;;;;4923003;29;19993;-84
2023/03/23 15:15:03;;;;;;;;;;;;;;;;;;4927340;29;19923;-84
2023/03/23 15:17:30;;;;;;;;;;;;;;;;;;4926842;29;19946;-85
2023/03/23 15:19:58;;;;;;;;;;;;;;;;;;4927590;29;19929;-84
2023/03/23 15:22:26;;;;;;;;;;;;;;;;;;4926059;29;19923;-84
2023/03/23 15:25:02;;;;;;;;;;;;;;;;;;4923947;29;20007;-84
2023/03/23 15:27:31;;;;;;;;;;;;;;;;;;4926744;29;19930;-85
2023/03/23 15:30:00;;;;;;;;;;;;;;;;;;4931421;29;19923;-85
2023/03/23 15:32:29;;;;;;;;;;;;;;;;;;4922642;29;20381;-85
2023/03/23 15:35:04;;;;;;;;;;;;;;;;;;4929295;29;19930;-85
2023/03/23 15:37:33;;;;;;;;;;;;;;;;;;4923726;29;19931;-85
2023/03/23 15:40:00;;;;;;;;;;;;;;;;;;4929165;29;20297;-85
2023/03/23 15:42:28;;;;;;;;;;;;;;;;;;4922867;29;20425;-85
2023/03/23 15:44:57;;;;;;;;;;;;;;;;;;4902515;29;19930;-85
2023/03/23 15:47:35;;;;;;;;;;;;;;;;;;4914979;29;19923;-85
2023/03/23 15:50:06;;;;;;;;;;;;;;;;;;4932513;29;19926;-84
2023/03/23 15:52:36;;;;;;;;;;;;;;;;;;4931442;29;20301;-85
2023/03/23 15:55:21;;;;;;;;;;;;;;;;;;4930674;29;19923;-84
2023/03/23 15:57:49;;;;;;;;;;;;;;;;;;4927915;29;19931;-84
2023/03/23 16:00:20;;;;;;;;;;;;;;;;;;4926180;29;19929;-84
2023/03/23 16:02:48;;;;;;;;;;;;;;;;;;4935170;29;19945;-84
2023/03/23 16:05:15;;;;;;;;;;;;;;;;;;4924113;29;19930;-84
2023/03/23 16:07:42;;;;;;;;;;;;;;;;;;4935905;29;19992;-84
2023/03/23 16:10:14;;;;;;;;;;;;;;;;;;4929523;29;19942;-84
2023/03/23 16:12:43;;;;;;;;;;;;;;;;;;4930694;29;19923;-85
2023/03/23 16:15:13;;;;;;;;;;;;;;;;;;4932865;29;19930;-84
2023/03/23 16:17:45;;;;;;;;;;;;;;;;;;4931770;29;20496;-84
2023/03/23 16:20:21;;;;;;;;;;;;;;;;;;4941809;28;20009;-84
2023/03/23 16:22:48;;;;;;;;;;;;;;;;;;4936246;29;20321;-84
2023/03/23 16:25:21;;;;;;;;;;;;;;;;;;4926287;29;20289;-83
2023/03/23 16:27:50;;;;;;;;;;;;;;;;;;4928396;29;19946;-84
2023/03/23 16:30:25;;;;;;;;;;;;;;;;;;4930738;29;19923;-84
2023/03/23 16:32:54;;;;;;;;;;;;;;;;;;4933544;29;19923;-84
2023/03/23 16:35:26;;;;;;;;;;;;;;;;;;4927753;29;19922;-84
2023/03/23 16:37:56;;;;;;;;;;;;;;;;;;4959043;23;20309;-81
2023/03/23 16:40:25;;;;;;;;;;;;;;;;;;4964297;28;20395;-82
2023/03/23 16:42:53;;;;;;;;;;;;;;;;;;4955705;28;19922;-81
2023/03/23 16:45:20;;;;;;;;;;;;;;;;;;4935094;28;19926;-81
2023/03/23 16:47:47;;;;;;;;;;;;;;;;;;4957293;28;19929;-81
2023/03/23 16:50:16;;;;;;;;;;;;;;;;;;4944043;28;19930;-79
2023/03/23 16:52:46;;;;;;;;;;;;;;;;;;4955361;28;19953;-79
2023/03/23 16:55:13;;;;;;;;;;;;;;;;;;4953007;28;19938;-79
2023/03/23 16:57:40;;;;;;;;;;;;;;;;;;4952444;28;19923;-79
2023/03/23 17:00:14;;;;;;;;;;;;;;;;;;4951913;28;20291;-80
2023/03/23 17:02:41;;;;;;;;;;;;;;;;;;4933216;29;19941;-80
2023/03/23 17:05:08;;;;;;;;;;;;;;;;;;4946041;29;20300;-80
2023/03/23 17:07:36;;;;;;;;;;;;;;;;;;4952680;28;19922;-79
2023/03/23 17:10:04;;;;;;;;;;;;;;;;;;4951131;29;19937;-80
2023/03/23 17:12:31;;;;;;;;;;;;;;;;;;4952944;28;19957;-80
2023/03/23 17:14:58;;;;;;;;;;;;;;;;;;4947796;28;20269;-80
2023/03/23 17:17:25;;;;;;;;;;;;;;;;;;4956182;28;19922;-80
2023/03/23 17:19:52;;;;;;;;;;;;;;;;;;4951037;29;19923;-80
2023/03/23 17:22:19;;;;;;;;;;;;;;;;;;4957935;28;20376;-80